Time;durP1;ratioP1;P1;durP2;ratioP2;P2;SDS_P1;SDS_P2;PMS_P1;PMS_P2;Temp;Humidity;BMP_temperature;BMP_pressure;BME280_temperature;BME280_humidity;BME280_pressure;Samples;Min_cycle;Max_cycle;Signal;HPM_P1;HPM_P2
2022/01/30 00:00:56;;;;;;;;;;;23.20;53.70;;;;;;5099744;28;950;-41
2022/01/30 00:03:22;;;;;;;;;;;23.10;53.80;;;;;;5098877;28;1014;-41
2022/01/30 00:05:49;;;;;;;;;;;23.10;53.70;;;;;;5099243;28;971;-40
2022/01/30 00:08:16;;;;;;;;;;;23.00;53.80;;;;;;5098570;28;915;-41
2022/01/30 00:10:45;;;;;;;;;;;23.00;53.90;;;;;;5098228;28;927;-41
2022/01/30 00:13:15;;;;;;;;;;;23.00;54.00;;;;;;5097858;28;1006;-41
2022/01/30 00:15:46;;;;;;;;;;;23.00;54.00;;;;;;5099028;28;1989;-41
2022/01/30 00:18:27;;;;;;;;;;;23.10;53.60;;;;;;5098790;28;1008;-40
2022/01/30 00:21:07;;;;;;;;;;;23.20;53.50;;;;;;5098326;28;952;-40
2022/01/30 00:23:37;;;;;;;;;;;23.30;53.40;;;;;;5098735;28;980;-40
2022/01/30 00:26:08;;;;;;;;;;;23.10;53.40;;;;;;5098252;28;943;-39
2022/01/30 00:28:34;;;;;;;;;;;23.00;53.50;;;;;;5099431;28;1009;-39
2022/01/30 00:31:01;;;;;;;;;;;23.00;54.10;;;;;;5098547;28;978;-40
2022/01/30 00:33:28;;;;;;;;;;;23.20;53.70;;;;;;5098324;28;990;-40
2022/01/30 00:35:55;;;;;;;;;;;23.30;53.60;;;;;;5098248;28;1902;-40
2022/01/30 00:38:23;;;;;;;;;;;23.20;53.50;;;;;;5098430;28;968;-39
2022/01/30 00:40:50;;;;;;;;;;;23.20;53.40;;;;;;5098730;28;945;-39
2022/01/30 00:43:19;;;;;;;;;;;23.10;53.60;;;;;;5098233;28;981;-40
2022/01/30 00:45:46;;;;;;;;;;;23.00;53.80;;;;;;5098566;28;969;-40
2022/01/30 00:48:13;;;;;;;;;;;22.90;53.80;;;;;;5098555;28;999;-40
2022/01/30 00:50:40;;;;;;;;;;;23.00;53.80;;;;;;5098655;28;1107;-39
2022/01/30 00:53:07;;;;;;;;;;;23.00;53.50;;;;;;5099059;28;996;-39
2022/01/30 00:55:34;;;;;;;;;;;22.90;53.70;;;;;;5097946;28;1910;-39
2022/01/30 00:58:02;;;;;;;;;;;22.90;53.80;;;;;;5098431;28;1011;-39
2022/01/30 01:00:30;;;;;;;;;;;22.90;53.70;;;;;;5098108;28;1015;-39
2022/01/30 01:02:57;;;;;;;;;;;22.80;53.80;;;;;;5098355;28;951;-40
2022/01/30 01:05:24;;;;;;;;;;;22.90;53.80;;;;;;5099163;28;962;-39
2022/01/30 01:07:52;;;;;;;;;;;22.90;53.70;;;;;;5097981;28;974;-39
2022/01/30 01:10:28;;;;;;;;;;;22.90;53.60;;;;;;5097872;28;1027;-39
2022/01/30 01:13:10;;;;;;;;;;;22.90;53.60;;;;;;5097934;28;1019;-40
2022/01/30 01:23:53;;;;;;;;;;;22.80;53.50;;;;;;5097836;28;884;-40
2022/01/30 01:26:21;;;;;;;;;;;22.70;53.80;;;;;;5099301;28;888;-40
2022/01/30 01:28:48;;;;;;;;;;;22.70;53.90;;;;;;5099555;28;1202;-40
2022/01/30 01:31:16;;;;;;;;;;;22.70;53.90;;;;;;5099004;28;1039;-40
2022/01/30 01:33:57;;;;;;;;;;;22.70;53.80;;;;;;5098600;28;1011;-40
2022/01/30 01:36:24;;;;;;;;;;;22.60;53.80;;;;;;5099025;28;976;-39
2022/01/30 01:38:51;;;;;;;;;;;22.70;53.80;;;;;;5098735;28;1773;-40
2022/01/30 01:41:21;;;;;;;;;;;22.60;53.70;;;;;;5099268;28;928;-40
2022/01/30 01:43:49;;;;;;;;;;;22.60;53.90;;;;;;5099062;28;941;-40
2022/01/30 01:46:21;;;;;;;;;;;22.50;53.80;;;;;;5098502;28;1004;-40
2022/01/30 01:48:50;;;;;;;;;;;22.50;53.90;;;;;;5098695;28;985;-40
2022/01/30 01:51:20;;;;;;;;;;;22.50;54.00;;;;;;5098580;28;1188;-39
2022/01/30 01:53:48;;;;;;;;;;;22.40;54.00;;;;;;5097909;28;991;-37
2022/01/30 01:56:15;;;;;;;;;;;22.40;54.10;;;;;;5098535;28;1967;-40
2022/01/30 01:58:43;;;;;;;;;;;22.40;54.00;;;;;;5099215;28;1008;-40
2022/01/30 02:01:10;;;;;;;;;;;22.40;54.10;;;;;;5098523;28;991;-39
2022/01/30 02:03:39;;;;;;;;;;;22.40;54.10;;;;;;5098445;28;980;-39
2022/01/30 02:06:09;;;;;;;;;;;22.30;54.10;;;;;;5098868;28;1011;-39
2022/01/30 02:08:40;;;;;;;;;;;22.30;54.00;;;;;;5098771;28;958;-39
2022/01/30 02:11:10;;;;;;;;;;;22.30;54.10;;;;;;5098412;28;972;-39
2022/01/30 02:13:58;;;;;;;;;;;22.30;54.10;;;;;;5098823;28;1016;-40
2022/01/30 02:24:50;;;;;;;;;;;22.30;54.00;;;;;;5098040;28;871;-38
2022/01/30 02:27:20;;;;;;;;;;;22.30;54.10;;;;;;5097998;28;996;-40
2022/01/30 02:29:47;;;;;;;;;;;22.30;54.00;;;;;;5098186;28;973;-39
2022/01/30 02:32:14;;;;;;;;;;;22.20;54.00;;;;;;5098722;28;889;-40
2022/01/30 02:34:41;;;;;;;;;;;22.20;54.00;;;;;;5102020;28;1898;-39
2022/01/30 02:37:07;;;;;;;;;;;22.20;54.00;;;;;;5102495;28;1002;-39
2022/01/30 02:39:34;;;;;;;;;;;22.20;54.00;;;;;;5102655;28;1083;-40
2022/01/30 02:42:03;;;;;;;;;;;22.20;54.00;;;;;;5102414;28;975;-40
2022/01/30 02:44:35;;;;;;;;;;;22.20;54.00;;;;;;5101674;28;999;-40
2022/01/30 02:47:06;;;;;;;;;;;22.20;54.00;;;;;;5101873;28;968;-38
2022/01/30 02:49:46;;;;;;;;;;;22.20;54.00;;;;;;5102415;28;1102;-39
2022/01/30 02:52:14;;;;;;;;;;;22.20;53.80;;;;;;5102392;28;1822;-39
2022/01/30 02:54:41;;;;;;;;;;;22.20;53.80;;;;;;5101960;28;1989;-40
2022/01/30 02:57:10;;;;;;;;;;;22.20;53.80;;;;;;5102308;28;885;-39
2022/01/30 02:59:37;;;;;;;;;;;22.10;53.80;;;;;;5102226;28;1017;-39
2022/01/30 03:02:05;;;;;;;;;;;22.20;54.00;;;;;;5101908;28;932;-38
2022/01/30 03:04:31;;;;;;;;;;;22.20;53.90;;;;;;5102149;28;1377;-39
2022/01/30 03:06:58;;;;;;;;;;;22.20;53.80;;;;;;5102146;28;1035;-38
2022/01/30 03:09:25;;;;;;;;;;;22.20;53.80;;;;;;5102558;28;899;-39
2022/01/30 03:11:51;;;;;;;;;;;22.20;53.90;;;;;;5101830;28;971;-39
2022/01/30 03:14:19;;;;;;;;;;;22.20;53.90;;;;;;5101482;28;989;-40
2022/01/30 03:16:46;;;;;;;;;;;22.10;53.90;;;;;;5101305;28;935;-38
2022/01/30 03:19:13;;;;;;;;;;;22.10;53.90;;;;;;5101732;28;988;-39
2022/01/30 03:21:40;;;;;;;;;;;22.10;53.90;;;;;;5101119;28;1493;-39
2022/01/30 03:24:06;;;;;;;;;;;22.10;54.00;;;;;;5101310;28;948;-39
2022/01/30 03:26:38;;;;;;;;;;;22.10;54.10;;;;;;5101061;28;1110;-39
2022/01/30 03:29:06;;;;;;;;;;;22.00;54.00;;;;;;5101563;28;968;-40
2022/01/30 03:31:35;;;;;;;;;;;22.10;54.00;;;;;;5101611;28;932;-40
2022/01/30 03:34:02;;;;;;;;;;;22.00;53.90;;;;;;5101436;28;1012;-39
2022/01/30 03:36:29;;;;;;;;;;;22.00;54.10;;;;;;5100775;28;1982;-40
2022/01/30 03:38:56;;;;;;;;;;;22.00;54.10;;;;;;5100939;28;935;-40
2022/01/30 03:41:22;;;;;;;;;;;22.00;54.00;;;;;;5101234;28;919;-39
2022/01/30 03:43:49;;;;;;;;;;;22.00;54.00;;;;;;5101420;28;1826;-40
2022/01/30 03:46:18;;;;;;;;;;;22.00;54.20;;;;;;5101167;28;1002;-38
2022/01/30 03:48:46;;;;;;;;;;;22.00;54.20;;;;;;5101008;28;1024;-38
2022/01/30 03:51:12;;;;;;;;;;;22.00;54.20;;;;;;5100756;28;1139;-40
2022/01/30 03:53:39;;;;;;;;;;;21.90;54.10;;;;;;5101131;28;980;-39
2022/01/30 03:56:06;;;;;;;;;;;21.90;54.00;;;;;;5100834;28;1976;-39
2022/01/30 03:58:33;;;;;;;;;;;22.00;54.10;;;;;;5101197;28;916;-38
2022/01/30 04:01:00;;;;;;;;;;;21.90;54.10;;;;;;5100475;28;959;-39
2022/01/30 04:03:27;;;;;;;;;;;21.90;54.10;;;;;;5100547;28;1001;-39
2022/01/30 04:05:55;;;;;;;;;;;21.90;54.20;;;;;;5101168;28;964;-40
2022/01/30 04:08:22;;;;;;;;;;;21.90;54.00;;;;;;5101011;28;995;-39
2022/01/30 04:10:49;;;;;;;;;;;21.90;54.00;;;;;;5101237;28;999;-40
2022/01/30 04:13:15;;;;;;;;;;;21.90;54.00;;;;;;5099639;28;957;-39
2022/01/30 04:15:42;;;;;;;;;;;21.90;54.10;;;;;;5100512;28;1901;-40
2022/01/30 04:18:09;;;;;;;;;;;21.90;54.10;;;;;;5100331;28;1011;-39
2022/01/30 04:20:36;;;;;;;;;;;21.90;54.00;;;;;;5100811;28;936;-40
2022/01/30 04:23:04;;;;;;;;;;;21.90;53.90;;;;;;5100920;28;940;-40
2022/01/30 04:25:31;;;;;;;;;;;21.90;54.00;;;;;;5100561;28;943;-38
2022/01/30 04:27:58;;;;;;;;;;;21.90;54.10;;;;;;5100709;28;931;-40
2022/01/30 04:30:24;;;;;;;;;;;21.80;54.00;;;;;;5100708;28;1000;-39
2022/01/30 04:32:51;;;;;;;;;;;21.80;54.00;;;;;;5100042;28;996;-39
2022/01/30 04:35:22;;;;;;;;;;;21.80;54.00;;;;;;5100075;28;1902;-39
2022/01/30 04:38:00;;;;;;;;;;;21.80;54.00;;;;;;5100489;28;959;-39
2022/01/30 04:57:24;;;;;;;;;;;21.80;54.10;;;;;;5057851;28;1037;-39
2022/01/30 05:00:06;;;;;;;;;;;21.80;54.10;;;;;;5057926;28;991;-40
2022/01/30 05:02:47;;;;;;;;;;;21.80;54.10;;;;;;5082959;28;1004;-39
2022/01/30 05:05:38;;;;;;;;;;;21.80;55.20;;;;;;5099726;28;960;-40
2022/01/30 05:08:05;;;;;;;;;;;21.80;53.90;;;;;;5099972;28;1102;-39
2022/01/30 05:10:32;;;;;;;;;;;21.80;54.00;;;;;;5099560;28;968;-38
2022/01/30 05:13:03;;;;;;;;;;;21.80;53.90;;;;;;5100102;28;1044;-39
2022/01/30 05:15:31;;;;;;;;;;;21.80;53.90;;;;;;5099273;28;1910;-39
2022/01/30 05:17:58;;;;;;;;;;;21.80;53.90;;;;;;5099096;28;923;-37
2022/01/30 05:20:24;;;;;;;;;;;21.80;53.70;;;;;;5099660;28;1004;-39
2022/01/30 05:22:51;;;;;;;;;;;21.80;53.90;;;;;;5099348;28;984;-40
2022/01/30 05:25:18;;;;;;;;;;;21.80;53.90;;;;;;5099193;28;948;-40
2022/01/30 05:27:45;;;;;;;;;;;21.80;53.90;;;;;;5099621;28;1103;-39
2022/01/30 05:30:14;;;;;;;;;;;21.80;54.10;;;;;;5099562;28;1031;-39
2022/01/30 05:32:41;;;;;;;;;;;21.80;53.90;;;;;;5099659;28;1007;-38
2022/01/30 05:35:09;;;;;;;;;;;21.80;54.00;;;;;;5099478;28;1975;-38
2022/01/30 05:37:37;;;;;;;;;;;21.90;53.80;;;;;;5099349;28;936;-39
2022/01/30 05:40:04;;;;;;;;;;;21.80;53.80;;;;;;5099156;28;981;-39
2022/01/30 05:42:31;;;;;;;;;;;21.80;53.80;;;;;;5098594;28;939;-40
2022/01/30 05:45:08;;;;;;;;;;;21.80;53.70;;;;;;5098849;28;1011;-40
2022/01/30 05:47:42;;;;;;;;;;;21.80;53.90;;;;;;5099541;28;971;-39
2022/01/30 05:50:09;;;;;;;;;;;21.80;53.80;;;;;;5098774;28;1062;-40
2022/01/30 05:52:36;;;;;;;;;;;21.70;54.00;;;;;;5099078;28;980;-39
2022/01/30 05:55:03;;;;;;;;;;;21.70;54.10;;;;;;5099068;28;1139;-40
2022/01/30 05:57:30;;;;;;;;;;;21.70;54.00;;;;;;5098797;28;1976;-39
2022/01/30 05:59:57;;;;;;;;;;;21.70;54.10;;;;;;5098930;28;1003;-39
2022/01/30 06:02:23;;;;;;;;;;;21.70;53.90;;;;;;5098969;28;1005;-39
2022/01/30 06:04:52;;;;;;;;;;;21.60;54.00;;;;;;5098345;28;932;-39
2022/01/30 06:07:26;;;;;;;;;;;21.60;54.20;;;;;;5097287;28;1118;-40
2022/01/30 06:09:53;;;;;;;;;;;21.60;54.00;;;;;;5098154;28;1137;-39
2022/01/30 06:12:20;;;;;;;;;;;21.60;54.00;;;;;;5098599;28;939;-39
2022/01/30 06:14:47;;;;;;;;;;;21.60;54.00;;;;;;5098612;28;962;-39
2022/01/30 06:17:14;;;;;;;;;;;21.60;54.10;;;;;;5098523;28;1996;-39
2022/01/30 06:19:40;;;;;;;;;;;21.60;54.10;;;;;;5098364;28;1202;-38
2022/01/30 06:22:08;;;;;;;;;;;21.60;54.10;;;;;;5098691;28;931;-40
2022/01/30 06:24:35;;;;;;;;;;;21.60;54.00;;;;;;5098509;28;996;-39
2022/01/30 06:27:02;;;;;;;;;;;21.60;54.10;;;;;;5097747;28;968;-39
2022/01/30 06:29:29;;;;;;;;;;;21.60;54.00;;;;;;5098543;28;971;-40
2022/01/30 06:31:55;;;;;;;;;;;21.60;54.10;;;;;;5097703;28;1015;-39
2022/01/30 06:34:22;;;;;;;;;;;21.60;54.00;;;;;;5098266;28;935;-40
2022/01/30 06:36:49;;;;;;;;;;;21.60;54.00;;;;;;5098062;28;1903;-39
2022/01/30 06:39:17;;;;;;;;;;;21.60;54.20;;;;;;5098488;28;939;-40
2022/01/30 06:41:44;;;;;;;;;;;21.60;54.20;;;;;;5098347;28;1769;-40
2022/01/30 06:44:11;;;;;;;;;;;21.60;54.10;;;;;;5098178;28;1014;-40
2022/01/30 06:46:38;;;;;;;;;;;21.60;54.10;;;;;;5098082;28;935;-37
2022/01/30 06:49:05;;;;;;;;;;;21.60;54.10;;;;;;5098348;28;996;-39
2022/01/30 06:51:31;;;;;;;;;;;21.60;54.10;;;;;;5097726;28;1209;-40
2022/01/30 06:53:58;;;;;;;;;;;21.60;54.00;;;;;;5098550;28;1820;-38
2022/01/30 06:56:26;;;;;;;;;;;21.60;54.10;;;;;;5096912;28;1976;-40
2022/01/30 06:58:56;;;;;;;;;;;21.60;54.00;;;;;;5097922;28;940;-40
2022/01/30 07:01:23;;;;;;;;;;;21.60;54.10;;;;;;5097885;28;1003;-39
2022/01/30 07:03:49;;;;;;;;;;;21.60;54.00;;;;;;5097658;28;1065;-40
2022/01/30 07:06:16;;;;;;;;;;;21.50;54.20;;;;;;5096653;28;1011;-39
2022/01/30 07:08:43;;;;;;;;;;;21.50;54.10;;;;;;5096897;28;984;-38
2022/01/30 07:11:09;;;;;;;;;;;21.50;54.10;;;;;;5097311;28;952;-38
2022/01/30 07:13:38;;;;;;;;;;;21.60;54.00;;;;;;5097143;28;1000;-39
2022/01/30 07:16:05;;;;;;;;;;;21.50;54.00;;;;;;5096668;28;1905;-39
2022/01/30 07:18:32;;;;;;;;;;;21.50;54.10;;;;;;5097929;28;1030;-39
2022/01/30 07:20:59;;;;;;;;;;;21.50;54.00;;;;;;5099536;28;947;-39
2022/01/30 07:23:25;;;;;;;;;;;21.50;53.90;;;;;;5099525;28;952;-39
2022/01/30 07:25:52;;;;;;;;;;;21.50;53.90;;;;;;5099474;28;1035;-39
2022/01/30 07:28:19;;;;;;;;;;;21.50;53.90;;;;;;5099766;28;1114;-37
2022/01/30 07:30:47;;;;;;;;;;;21.50;54.10;;;;;;5098934;28;934;-40
2022/01/30 07:33:14;;;;;;;;;;;21.50;54.10;;;;;;5099848;28;1039;-38
2022/01/30 07:35:42;;;;;;;;;;;21.50;54.00;;;;;;5099411;28;1905;-39
2022/01/30 07:38:08;;;;;;;;;;;21.50;54.10;;;;;;5100094;28;958;-38
2022/01/30 07:40:35;;;;;;;;;;;21.50;54.00;;;;;;5099376;28;944;-38
2022/01/30 07:43:02;;;;;;;;;;;21.50;54.00;;;;;;5099341;28;911;-37
2022/01/30 07:45:29;;;;;;;;;;;21.50;54.10;;;;;;5099251;28;1003;-38
2022/01/30 07:47:57;;;;;;;;;;;21.50;53.90;;;;;;5099268;28;932;-38
2022/01/30 07:50:24;;;;;;;;;;;21.50;53.90;;;;;;5098947;28;1146;-38
2022/01/30 07:52:50;;;;;;;;;;;21.50;54.00;;;;;;5098821;28;920;-38
2022/01/30 07:55:19;;;;;;;;;;;21.50;54.00;;;;;;5100944;28;999;-41
2022/01/30 07:57:46;;;;;;;;;;;21.50;54.10;;;;;;5100784;28;1909;-41
2022/01/30 08:00:13;;;;;;;;;;;21.50;54.00;;;;;;5101671;28;1120;-41
2022/01/30 08:02:40;;;;;;;;;;;21.50;54.00;;;;;;5100705;28;1052;-41
2022/01/30 08:05:09;;;;;;;;;;;21.50;54.10;;;;;;5101099;28;965;-42
2022/01/30 08:07:36;;;;;;;;;;;21.50;54.10;;;;;;5100798;28;996;-44
2022/01/30 08:10:03;;;;;;;;;;;21.40;54.00;;;;;;5101034;28;934;-43
2022/01/30 08:12:30;;;;;;;;;;;21.40;54.10;;;;;;5101255;28;1014;-43
2022/01/30 08:14:56;;;;;;;;;;;21.40;54.10;;;;;;5099459;28;1001;-42
2022/01/30 08:17:23;;;;;;;;;;;21.40;54.00;;;;;;5098623;28;1898;-41
2022/01/30 08:19:51;;;;;;;;;;;21.40;54.00;;;;;;5098511;28;983;-43
2022/01/30 08:22:19;;;;;;;;;;;21.40;53.90;;;;;;5098390;28;932;-42
2022/01/30 08:24:45;;;;;;;;;;;21.40;54.00;;;;;;5097752;28;1015;-42
2022/01/30 08:27:12;;;;;;;;;;;21.50;53.90;;;;;;5097799;28;907;-43
2022/01/30 08:29:39;;;;;;;;;;;21.40;53.80;;;;;;5097071;28;1006;-42
2022/01/30 08:32:11;;;;;;;;;;;21.50;53.90;;;;;;5100298;28;888;-45
2022/01/30 08:34:38;;;;;;;;;;;21.40;54.00;;;;;;5100543;28;1164;-42
2022/01/30 08:37:06;;;;;;;;;;;21.50;54.80;;;;;;5100065;28;1976;-43
2022/01/30 08:39:34;;;;;;;;;;;21.60;53.70;;;;;;5100811;28;1031;-42
2022/01/30 08:42:01;;;;;;;;;;;21.60;53.60;;;;;;5100923;28;890;-45
2022/01/30 08:44:28;;;;;;;;;;;21.60;53.60;;;;;;5100707;28;986;-43
2022/01/30 08:46:54;;;;;;;;;;;21.70;53.50;;;;;;5100808;28;931;-42
2022/01/30 08:49:21;;;;;;;;;;;21.80;53.30;;;;;;5099764;28;1227;-42
2022/01/30 08:51:48;;;;;;;;;;;21.80;53.30;;;;;;5099665;28;943;-43
2022/01/30 08:54:15;;;;;;;;;;;21.90;53.20;;;;;;5099543;28;992;-42
2022/01/30 08:56:43;;;;;;;;;;;22.00;53.10;;;;;;5100237;28;1971;-43
2022/01/30 08:59:10;;;;;;;;;;;22.20;52.90;;;;;;5099967;28;992;-43
2022/01/30 09:01:37;;;;;;;;;;;22.30;52.50;;;;;;5100041;28;1022;-43
2022/01/30 09:04:04;;;;;;;;;;;22.40;52.20;;;;;;5100014;28;982;-42
2022/01/30 09:06:31;;;;;;;;;;;22.50;52.10;;;;;;5099022;28;877;-42
2022/01/30 09:08:59;;;;;;;;;;;22.50;52.00;;;;;;5098337;28;981;-43
2022/01/30 09:11:26;;;;;;;;;;;22.60;51.90;;;;;;5099708;28;1015;-42
2022/01/30 09:13:54;;;;;;;;;;;22.70;51.70;;;;;;5098861;28;980;-42
2022/01/30 09:16:21;;;;;;;;;;;22.70;51.60;;;;;;5098558;28;1974;-43
2022/01/30 09:18:48;;;;;;;;;;;22.80;51.40;;;;;;5096947;28;1005;-42
2022/01/30 09:21:15;;;;;;;;;;;22.90;51.40;;;;;;5097649;28;935;-43
2022/01/30 09:23:42;;;;;;;;;;;22.90;51.30;;;;;;5095549;28;1004;-41
2022/01/30 09:26:08;;;;;;;;;;;22.90;51.40;;;;;;5096860;28;988;-41
2022/01/30 09:28:35;;;;;;;;;;;22.90;51.30;;;;;;5096840;28;1176;-40
2022/01/30 09:31:03;;;;;;;;;;;22.90;51.30;;;;;;5096771;28;979;-41
2022/01/30 09:33:30;;;;;;;;;;;22.90;51.50;;;;;;5096661;28;956;-39
2022/01/30 09:35:56;;;;;;;;;;;22.80;51.40;;;;;;5095989;28;876;-41
2022/01/30 09:38:24;;;;;;;;;;;22.90;51.40;;;;;;5095672;28;1965;-41
2022/01/30 09:40:53;;;;;;;;;;;22.70;51.60;;;;;;5097150;28;984;-40
2022/01/30 09:43:20;;;;;;;;;;;22.60;51.90;;;;;;5096626;28;1036;-41
2022/01/30 09:45:47;;;;;;;;;;;22.70;51.90;;;;;;5097644;28;996;-41
2022/01/30 09:48:15;;;;;;;;;;;22.60;52.10;;;;;;5098019;28;919;-40
2022/01/30 09:50:43;;;;;;;;;;;22.60;52.10;;;;;;5097175;28;1044;-41
2022/01/30 09:53:10;;;;;;;;;;;22.50;52.20;;;;;;5097255;28;931;-41
2022/01/30 09:55:37;;;;;;;;;;;22.60;52.10;;;;;;5097257;28;939;-43
2022/01/30 09:58:05;;;;;;;;;;;22.60;52.00;;;;;;5098633;28;1981;-43
2022/01/30 10:00:32;;;;;;;;;;;22.60;51.90;;;;;;5098757;28;939;-44
2022/01/30 10:02:59;;;;;;;;;;;22.60;51.90;;;;;;5098498;28;907;-42
2022/01/30 10:05:30;;;;;;;;;;;22.70;51.90;;;;;;5098800;28;884;-43
2022/01/30 10:07:58;;;;;;;;;;;22.80;51.50;;;;;;5098638;28;1016;-44
2022/01/30 10:10:28;;;;;;;;;;;22.70;51.70;;;;;;5099186;28;1016;-42
2022/01/30 10:13:05;;;;;;;;;;;22.70;51.70;;;;;;5098293;28;1023;-42
2022/01/30 10:15:48;;;;;;;;;;;22.70;51.50;;;;;;5098234;28;909;-42
2022/01/30 10:18:14;;;;;;;;;;;22.70;51.90;;;;;;5098855;28;1992;-42
2022/01/30 10:20:43;;;;;;;;;;;22.70;52.20;;;;;;5096171;28;937;-48
2022/01/30 10:23:10;;;;;;;;;;;22.70;52.00;;;;;;5096011;28;1087;-45
2022/01/30 10:25:38;;;;;;;;;;;22.60;52.30;;;;;;5096598;28;1047;-45
2022/01/30 10:28:06;;;;;;;;;;;22.70;52.20;;;;;;5096812;28;1007;-45
2022/01/30 10:30:40;;;;;;;;;;;22.70;51.80;;;;;;5097412;28;1004;-47
2022/01/30 10:33:08;;;;;;;;;;;22.80;51.80;;;;;;5096970;28;904;-44
2022/01/30 10:35:47;;;;;;;;;;;22.80;51.60;;;;;;5095327;28;944;-44
2022/01/30 10:38:18;;;;;;;;;;;22.90;51.40;;;;;;5097045;28;1906;-44
2022/01/30 10:40:51;;;;;;;;;;;22.80;51.50;;;;;;5096259;28;1011;-43
2022/01/30 10:43:18;;;;;;;;;;;22.70;52.20;;;;;;5097113;28;1002;-43
2022/01/30 10:45:45;;;;;;;;;;;22.80;51.90;;;;;;5097740;28;964;-43
2022/01/30 10:48:13;;;;;;;;;;;22.80;52.10;;;;;;5097805;28;993;-44
2022/01/30 10:50:42;;;;;;;;;;;22.80;52.00;;;;;;5097042;28;1047;-43
2022/01/30 10:53:18;;;;;;;;;;;22.90;51.70;;;;;;5097688;28;940;-44
2022/01/30 10:55:46;;;;;;;;;;;22.80;51.90;;;;;;5102044;28;908;-46
2022/01/30 10:58:14;;;;;;;;;;;22.80;52.00;;;;;;5101247;28;1977;-43
2022/01/30 11:00:59;;;;;;;;;;;22.90;52.00;;;;;;5101731;28;968;-44
2022/01/30 11:03:39;;;;;;;;;;;22.90;52.00;;;;;;5101673;28;854;-44
2022/01/30 11:06:10;;;;;;;;;;;22.90;52.00;;;;;;5101212;28;968;-45
2022/01/30 11:08:41;;;;;;;;;;;23.00;52.40;;;;;;5101391;28;981;-43
2022/01/30 11:11:14;;;;;;;;;;;23.00;52.10;;;;;;5101373;28;944;-43
2022/01/30 11:14:00;;;;;;;;;;;23.00;52.30;;;;;;5101441;28;976;-43
2022/01/30 11:19:13;;;;;;;;;;;22.90;52.30;;;;;;5100917;28;1988;-44
2022/01/30 11:21:40;;;;;;;;;;;22.90;52.50;;;;;;5100730;28;956;-43
2022/01/30 11:24:09;;;;;;;;;;;22.90;52.90;;;;;;5100856;28;980;-43
2022/01/30 11:26:36;;;;;;;;;;;22.70;53.10;;;;;;5100983;28;860;-43
2022/01/30 11:29:03;;;;;;;;;;;22.80;52.80;;;;;;5100443;28;1007;-43
2022/01/30 11:31:30;;;;;;;;;;;22.70;53.50;;;;;;5100820;28;1369;-48
2022/01/30 11:33:58;;;;;;;;;;;22.70;54.00;;;;;;5101548;28;1007;-48
2022/01/30 11:36:25;;;;;;;;;;;22.70;53.50;;;;;;5101188;28;1038;-45
2022/01/30 11:38:51;;;;;;;;;;;22.70;53.40;;;;;;5101298;28;1992;-46
2022/01/30 11:41:20;;;;;;;;;;;22.60;53.40;;;;;;5102005;28;946;-46
2022/01/30 11:44:05;;;;;;;;;;;22.50;53.30;;;;;;5101789;28;2021;-45
2022/01/30 11:46:31;;;;;;;;;;;22.50;51.50;;;;;;5101054;28;1338;-45
2022/01/30 11:49:11;;;;;;;;;;;22.40;51.00;;;;;;5101405;28;1020;-45
2022/01/30 11:51:48;;;;;;;;;;;22.30;51.40;;;;;;5100907;28;1127;-46
2022/01/30 11:54:29;;;;;;;;;;;22.30;51.30;;;;;;5101425;28;928;-45
2022/01/30 11:56:58;;;;;;;;;;;22.30;51.00;;;;;;5100274;28;1625;-46
2022/01/30 11:59:35;;;;;;;;;;;22.30;50.70;;;;;;5100101;28;1909;-49
2022/01/30 12:02:16;;;;;;;;;;;22.30;50.80;;;;;;5099982;28;1031;-49
2022/01/30 12:04:53;;;;;;;;;;;22.30;50.90;;;;;;5098973;28;1301;-49
2022/01/30 12:07:32;;;;;;;;;;;22.40;50.70;;;;;;5098689;28;864;-48
2022/01/30 12:10:13;;;;;;;;;;;22.40;50.40;;;;;;5100630;28;1006;-48
2022/01/30 12:12:48;;;;;;;;;;;22.30;49.80;;;;;;5099936;28;1443;-50
2022/01/30 12:15:30;;;;;;;;;;;22.40;49.90;;;;;;5099106;28;988;-49
2022/01/30 12:17:57;;;;;;;;;;;22.50;50.00;;;;;;5099681;28;1997;-47
2022/01/30 12:20:24;;;;;;;;;;;22.40;50.10;;;;;;5101860;28;961;-50
2022/01/30 12:22:52;;;;;;;;;;;22.50;50.30;;;;;;5100381;28;976;-48
2022/01/30 12:25:37;;;;;;;;;;;22.40;50.20;;;;;;5099734;28;1817;-48
2022/01/30 12:28:06;;;;;;;;;;;22.30;50.40;;;;;;5100075;28;940;-51
2022/01/30 12:30:34;;;;;;;;;;;22.20;50.10;;;;;;5100524;28;971;-52
2022/01/30 12:33:02;;;;;;;;;;;22.30;50.30;;;;;;5099341;28;1778;-49
2022/01/30 12:35:29;;;;;;;;;;;22.30;50.40;;;;;;5100252;28;971;-48
2022/01/30 12:37:56;;;;;;;;;;;22.30;50.60;;;;;;5099967;28;1910;-52
2022/01/30 12:40:23;;;;;;;;;;;22.20;51.00;;;;;;5100641;28;984;-51
2022/01/30 12:42:50;;;;;;;;;;;22.30;51.10;;;;;;5099966;28;932;-55
2022/01/30 12:45:18;;;;;;;;;;;22.40;50.90;;;;;;5099061;28;950;-52
2022/01/30 12:47:48;;;;;;;;;;;22.40;50.90;;;;;;5099292;28;1007;-52
2022/01/30 12:50:15;;;;;;;;;;;22.40;50.90;;;;;;5100010;28;1019;-53
2022/01/30 12:52:47;;;;;;;;;;;22.30;50.90;;;;;;5100573;28;976;-54
2022/01/30 12:55:16;;;;;;;;;;;22.40;50.80;;;;;;5099632;28;987;-54
2022/01/30 12:57:43;;;;;;;;;;;22.50;51.20;;;;;;5098202;28;1898;-52
2022/01/30 13:00:11;;;;;;;;;;;22.60;51.30;;;;;;5098013;28;1115;-52
2022/01/30 13:02:39;;;;;;;;;;;22.60;51.00;;;;;;5098466;28;948;-54
2022/01/30 13:05:07;;;;;;;;;;;22.60;51.00;;;;;;5097492;28;1017;-54
2022/01/30 13:07:34;;;;;;;;;;;22.60;51.00;;;;;;5098206;28;1009;-55
2022/01/30 13:10:05;;;;;;;;;;;22.60;51.00;;;;;;5100018;28;1056;-47
2022/01/30 13:12:32;;;;;;;;;;;22.60;51.10;;;;;;5099332;28;932;-48
2022/01/30 13:14:59;;;;;;;;;;;22.70;52.30;;;;;;5098935;28;1130;-47
2022/01/30 13:17:29;;;;;;;;;;;22.70;51.20;;;;;;5097375;28;901;-48
2022/01/30 13:19:57;;;;;;;;;;;22.70;51.20;;;;;;5098912;28;991;-46
2022/01/30 13:22:25;;;;;;;;;;;22.70;51.90;;;;;;5098037;28;980;-46
2022/01/30 13:24:54;;;;;;;;;;;22.70;51.60;;;;;;5098169;28;1017;-46
2022/01/30 13:27:21;;;;;;;;;;;22.80;51.40;;;;;;5097777;28;1007;-45
2022/01/30 13:29:47;;;;;;;;;;;22.80;52.30;;;;;;5098455;28;972;-44
2022/01/30 13:32:14;;;;;;;;;;;22.80;51.30;;;;;;5098344;28;912;-46
2022/01/30 13:34:42;;;;;;;;;;;22.80;51.50;;;;;;5097835;28;998;-46
2022/01/30 13:37:11;;;;;;;;;;;22.80;51.50;;;;;;5098183;28;936;-45
2022/01/30 13:39:42;;;;;;;;;;;22.80;51.90;;;;;;5098200;28;1906;-45
2022/01/30 13:42:27;;;;;;;;;;;22.80;51.70;;;;;;5098322;28;936;-45
2022/01/30 13:45:06;;;;;;;;;;;22.80;51.50;;;;;;5097552;28;1799;-44
2022/01/30 13:47:33;;;;;;;;;;;22.80;52.10;;;;;;5097912;28;995;-44
2022/01/30 13:50:00;;;;;;;;;;;22.70;51.30;;;;;;5097054;28;1121;-44
2022/01/30 13:52:31;;;;;;;;;;;22.60;50.80;;;;;;5097191;28;1107;-44
2022/01/30 13:55:00;;;;;;;;;;;22.60;50.20;;;;;;5096726;28;1010;-44
2022/01/30 13:57:32;;;;;;;;;;;22.50;50.50;;;;;;5097195;28;971;-43
2022/01/30 14:00:06;;;;;;;;;;;22.50;49.60;;;;;;5098136;28;2048;-45
2022/01/30 14:02:33;;;;;;;;;;;22.50;49.50;;;;;;5097721;28;1011;-45
2022/01/30 14:05:15;;;;;;;;;;;22.40;48.60;;;;;;5097124;28;960;-44
2022/01/30 14:07:43;;;;;;;;;;;22.50;48.30;;;;;;5096156;28;1590;-44
2022/01/30 14:10:10;;;;;;;;;;;22.50;47.70;;;;;;5098106;28;977;-45
2022/01/30 14:12:39;;;;;;;;;;;22.40;46.90;;;;;;5097281;28;928;-43
2022/01/30 14:15:08;;;;;;;;;;;22.40;47.80;;;;;;5097437;28;982;-44
2022/01/30 14:17:36;;;;;;;;;;;22.40;46.70;;;;;;5097251;28;976;-44
2022/01/30 14:20:06;;;;;;;;;;;22.50;47.00;;;;;;5097568;28;1909;-44
2022/01/30 14:22:34;;;;;;;;;;;22.60;46.80;;;;;;5096962;28;1009;-44
2022/01/30 14:25:05;;;;;;;;;;;22.60;46.50;;;;;;5097538;28;1018;-44
2022/01/30 14:27:35;;;;;;;;;;;22.60;45.50;;;;;;5095542;28;964;-45
2022/01/30 14:30:04;;;;;;;;;;;22.50;45.10;;;;;;5095454;28;1138;-40
2022/01/30 14:32:33;;;;;;;;;;;22.60;45.10;;;;;;5094602;28;872;-40
2022/01/30 14:35:00;;;;;;;;;;;22.50;45.70;;;;;;5095551;28;1030;-40
2022/01/30 14:37:28;;;;;;;;;;;22.50;46.30;;;;;;5095825;28;971;-40
2022/01/30 14:39:55;;;;;;;;;;;22.60;46.30;;;;;;5094870;28;1977;-41
2022/01/30 14:42:23;;;;;;;;;;;22.50;46.60;;;;;;5094867;28;826;-40
2022/01/30 14:44:50;;;;;;;;;;;22.60;46.80;;;;;;5095435;28;976;-40
2022/01/30 14:47:17;;;;;;;;;;;22.60;46.90;;;;;;5095280;28;877;-41
2022/01/30 14:49:45;;;;;;;;;;;22.60;46.90;;;;;;5096103;28;995;-41
2022/01/30 14:52:13;;;;;;;;;;;22.50;46.60;;;;;;5095869;28;947;-41
2022/01/30 14:54:40;;;;;;;;;;;22.60;47.20;;;;;;5095463;28;856;-40
2022/01/30 14:57:06;;;;;;;;;;;22.60;46.90;;;;;;5096702;28;960;-43
2022/01/30 14:59:35;;;;;;;;;;;22.60;47.10;;;;;;5096379;28;1897;-43
2022/01/30 15:02:01;;;;;;;;;;;22.50;47.20;;;;;;5096469;28;1007;-44
2022/01/30 15:04:28;;;;;;;;;;;22.50;47.10;;;;;;5096288;28;992;-43
2022/01/30 15:06:55;;;;;;;;;;;22.50;47.10;;;;;;5095324;28;873;-43
2022/01/30 15:09:22;;;;;;;;;;;22.50;47.30;;;;;;5095940;28;983;-44
2022/01/30 15:11:48;;;;;;;;;;;22.50;47.40;;;;;;5096150;28;944;-44
2022/01/30 15:14:22;;;;;;;;;;;22.50;47.50;;;;;;5095628;28;928;-44
2022/01/30 15:16:51;;;;;;;;;;;22.50;47.50;;;;;;5094417;28;1820;-44
2022/01/30 15:19:19;;;;;;;;;;;22.50;47.80;;;;;;5094814;28;1913;-43
2022/01/30 15:21:47;;;;;;;;;;;22.50;47.90;;;;;;5095519;28;996;-43